createdAt,value
2023-01-19T00:00:59.603Z,3.70
2023-01-19T00:02:02.377Z,3.70
2023-01-19T00:03:06.619Z,3.90
2023-01-19T00:04:11.644Z,3.80
2023-01-19T00:05:16.146Z,3.40
2023-01-19T00:06:19.171Z,3.80
2023-01-19T00:07:22.759Z,3.90
2023-01-19T00:08:26.525Z,3.90
2023-01-19T00:09:34.597Z,3.90
2023-01-19T00:10:40.547Z,3.90
2023-01-19T00:11:46.865Z,3.80
2023-01-19T00:12:52.274Z,4.20
2023-01-19T00:13:57.878Z,3.80
2023-01-19T00:15:00.259Z,3.90
2023-01-19T00:16:06.990Z,3.80
2023-01-19T00:17:09.535Z,3.90
2023-01-19T00:18:16.004Z,3.90
2023-01-19T00:19:18.704Z,3.80
2023-01-19T00:20:22.068Z,3.80
2023-01-19T00:21:24.983Z,3.80
2023-01-19T00:22:28.621Z,3.80
2023-01-19T00:23:32.722Z,3.90
2023-01-19T00:24:39.250Z,3.90
2023-01-19T00:25:43.741Z,3.90
2023-01-19T00:26:48.435Z,4.00
2023-01-19T00:27:53.475Z,4.00
2023-01-19T00:29:00.920Z,4.00
2023-01-19T00:30:07.268Z,4.00
2023-01-19T00:31:11.030Z,4.00
2023-01-19T00:32:16.637Z,4.00
2023-01-19T00:33:22.663Z,4.00
2023-01-19T00:34:25.340Z,4.10
2023-01-19T00:35:28.828Z,3.10
2023-01-19T00:36:36.779Z,4.10
2023-01-19T00:37:40.828Z,4.10
2023-01-19T00:38:44.412Z,5.20
2023-01-19T00:39:52.752Z,4.10
2023-01-19T00:40:56.516Z,4.10
2023-01-19T00:42:19.517Z,4.10
2023-01-19T00:43:24.494Z,4.20
2023-01-19T00:44:29.593Z,4.20
2023-01-19T00:45:33.764Z,4.20
2023-01-19T00:46:40.527Z,4.20
2023-01-19T00:47:43.110Z,4.20
2023-01-19T00:48:48.666Z,4.40
2023-01-19T00:49:51.291Z,4.20
2023-01-19T00:50:57.736Z,4.20
2023-01-19T00:52:00.114Z,4.20
2023-01-19T00:53:04.258Z,4.20
2023-01-19T00:54:10.572Z,4.20
2023-01-19T00:55:17.013Z,4.20
2023-01-19T00:56:27.510Z,4.20
2023-01-19T00:57:33.843Z,5.70
2023-01-19T00:58:36.163Z,4.20
2023-01-19T00:59:41.358Z,4.20
2023-01-19T01:00:46.027Z,4.10
2023-01-19T01:01:48.775Z,4.20
2023-01-19T01:02:55.070Z,4.10
2023-01-19T01:03:57.491Z,4.20
2023-01-19T01:05:02.950Z,4.90
2023-01-19T01:06:08.337Z,4.10
2023-01-19T01:07:14.534Z,4.10
2023-01-19T01:08:19.281Z,4.70
2023-01-19T01:09:22.657Z,4.20
2023-01-19T01:10:29.119Z,4.20
2023-01-19T01:11:32.763Z,4.10
2023-01-19T01:12:39.057Z,4.10
2023-01-19T01:13:42.558Z,4.60
2023-01-19T01:14:49.427Z,4.20
2023-01-19T01:15:54.728Z,4.30
2023-01-19T01:16:59.241Z,4.20
2023-01-19T01:18:02.683Z,2.70
2023-01-19T01:19:05.213Z,4.20
2023-01-19T01:20:09.819Z,4.20
2023-01-19T01:21:13.237Z,4.20
2023-01-19T01:22:16.603Z,4.20
2023-01-19T01:23:22.777Z,4.30
2023-01-19T01:24:27.857Z,4.30
2023-01-19T01:25:37.757Z,4.30
2023-01-19T01:26:41.558Z,4.30
2023-01-19T01:27:44.472Z,4.30
2023-01-19T01:28:51.910Z,4.20
2023-01-19T01:29:55.832Z,4.30
2023-01-19T01:30:59.872Z,4.30
2023-01-19T01:32:02.947Z,4.20
2023-01-19T01:33:06.393Z,4.20
2023-01-19T01:34:09.212Z,4.20
2023-01-19T01:35:16.590Z,4.30
2023-01-19T01:36:21.449Z,4.20
2023-01-19T01:37:27.863Z,4.20
2023-01-19T01:38:32.500Z,4.20
2023-01-19T01:39:39.954Z,4.20
2023-01-19T01:40:43.301Z,4.20
2023-01-19T01:41:49.549Z,4.20
2023-01-19T01:42:52.195Z,4.20
2023-01-19T01:43:58.650Z,4.20
2023-01-19T01:45:07.548Z,4.20
2023-01-19T01:46:16.285Z,4.20
2023-01-19T01:47:30.232Z,4.30
2023-01-19T01:48:34.461Z,4.20
2023-01-19T01:49:37.237Z,4.20
2023-01-19T01:51:07.034Z,4.30
2023-01-19T01:52:11.524Z,4.20
2023-01-19T01:53:17.978Z,4.30
2023-01-19T01:54:28.887Z,4.30
2023-01-19T01:55:35.606Z,4.30
2023-01-19T01:56:40.456Z,3.10
2023-01-19T01:57:51.402Z,4.30
2023-01-19T01:59:00.517Z,4.30
2023-01-19T02:00:12.399Z,4.30
2023-01-19T02:01:33.638Z,4.30
2023-01-19T02:02:55.359Z,4.30
2023-01-19T02:03:59.937Z,4.20
2023-01-19T02:05:12.166Z,4.20
2023-01-19T02:06:15.582Z,4.20
2023-01-19T02:07:45.918Z,4.20
2023-01-19T02:09:15.161Z,4.20
2023-01-19T02:10:39.109Z,4.20
2023-01-19T02:12:01.537Z,4.20
2023-01-19T02:13:22.351Z,4.10
2023-01-19T02:14:24.973Z,4.10
2023-01-19T02:15:34.601Z,4.10
2023-01-19T02:16:38.742Z,4.10
2023-01-19T02:17:42.493Z,4.00
2023-01-19T02:18:53.384Z,4.00
2023-01-19T02:19:55.771Z,4.00
2023-01-19T02:21:09.605Z,4.00
2023-01-19T02:22:20.112Z,4.00
2023-01-19T02:23:42.215Z,4.00
2023-01-19T02:24:47.182Z,4.00
2023-01-19T02:25:54.768Z,4.00
2023-01-19T02:27:01.181Z,4.00
2023-01-19T02:28:05.857Z,4.00
2023-01-19T02:29:12.027Z,3.90
2023-01-19T02:30:17.613Z,5.60
2023-01-19T02:31:21.997Z,3.90
2023-01-19T02:32:25.782Z,3.90
2023-01-19T02:33:30.966Z,3.90
2023-01-19T02:34:34.908Z,3.90
2023-01-19T02:35:42.703Z,3.90
2023-01-19T02:36:58.343Z,4.00
2023-01-19T02:38:03.960Z,4.00
2023-01-19T02:39:12.390Z,4.00
2023-01-19T02:40:19.958Z,4.30
2023-01-19T02:41:30.438Z,4.00
2023-01-19T02:42:42.429Z,4.70
2023-01-19T02:43:51.003Z,4.00
2023-01-19T02:44:56.573Z,4.00
2023-01-19T02:46:03.568Z,4.00
2023-01-19T02:47:06.616Z,4.00
2023-01-19T02:48:11.733Z,4.00
2023-01-19T02:49:16.358Z,4.10
2023-01-19T02:50:43.048Z,4.00
2023-01-19T02:51:45.910Z,4.20
2023-01-19T02:52:51.711Z,4.00
2023-01-19T02:54:23.348Z,4.00
2023-01-19T02:55:31.136Z,4.00
2023-01-19T02:56:56.614Z,4.00
2023-01-19T02:58:09.968Z,4.00
2023-01-19T02:59:30.572Z,4.00
2023-01-19T03:00:44.883Z,4.00
2023-01-19T03:02:11.511Z,4.00
2023-01-19T03:03:28.764Z,4.00
2023-01-19T03:04:49.877Z,4.30
2023-01-19T03:06:05.470Z,3.90
2023-01-19T03:07:16.019Z,3.90
2023-01-19T03:08:34.577Z,3.90
2023-01-19T03:09:48.810Z,3.90
2023-01-19T03:11:06.480Z,4.00
2023-01-19T03:12:18.008Z,3.90
2023-01-19T03:13:31.326Z,5.40
2023-01-19T03:14:46.690Z,4.00
2023-01-19T03:15:52.983Z,3.90
2023-01-19T03:17:04.515Z,4.00
2023-01-19T03:18:12.645Z,4.00
2023-01-19T03:19:24.126Z,4.00
2023-01-19T03:20:29.067Z,4.00
2023-01-19T03:21:37.977Z,4.00
2023-01-19T03:22:41.077Z,4.00
2023-01-19T03:23:51.440Z,4.00
2023-01-19T03:24:59.764Z,4.70
2023-01-19T03:26:12.237Z,4.00
2023-01-19T03:27:20.153Z,4.00
2023-01-19T03:28:29.253Z,4.00
2023-01-19T03:29:39.180Z,4.00
2023-01-19T03:31:23.008Z,4.10
2023-01-19T03:32:31.567Z,4.10
2023-01-19T03:33:42.162Z,4.10
2023-01-19T03:34:48.609Z,4.10
2023-01-19T03:35:57.675Z,4.10
2023-01-19T03:37:05.324Z,4.10
2023-01-19T03:38:16.623Z,4.20
2023-01-19T03:39:24.445Z,4.20
2023-01-19T03:40:32.690Z,4.20
2023-01-19T03:41:40.561Z,4.20
2023-01-19T03:42:45.495Z,4.20
2023-01-19T03:43:52.891Z,4.20
2023-01-19T03:44:57.523Z,4.30
2023-01-19T03:46:05.993Z,4.20
2023-01-19T03:47:12.302Z,4.20
2023-01-19T03:48:16.319Z,4.20
2023-01-19T03:49:19.282Z,4.20
2023-01-19T03:50:28.661Z,4.20
2023-01-19T03:51:31.703Z,4.20
2023-01-19T03:52:35.392Z,4.20
2023-01-19T03:53:37.916Z,4.20
2023-01-19T03:54:42.457Z,4.30
2023-01-19T03:55:48.455Z,4.20
2023-01-19T03:56:54.262Z,4.20
2023-01-19T03:57:56.626Z,4.20
2023-01-19T03:59:00.609Z,4.30
2023-01-19T04:00:03.439Z,4.20
2023-01-19T04:01:16.778Z,4.20
2023-01-19T04:02:21.607Z,4.20
2023-01-19T04:03:25.155Z,4.20
2023-01-19T04:04:27.706Z,4.20
2023-01-19T04:05:31.856Z,4.20
2023-01-19T04:06:34.330Z,4.20
2023-01-19T04:07:37.960Z,4.20
2023-01-19T04:08:40.839Z,4.20
2023-01-19T04:09:50.174Z,4.20
2023-01-19T04:10:52.911Z,4.20
2023-01-19T04:12:00.109Z,4.30
2023-01-19T04:13:04.141Z,4.30
2023-01-19T04:14:07.592Z,4.30
2023-01-19T04:15:10.578Z,4.30
2023-01-19T04:16:14.488Z,4.30
2023-01-19T04:17:16.806Z,4.30
2023-01-19T04:18:20.470Z,4.30
2023-01-19T04:19:22.980Z,4.30
2023-01-19T04:20:30.154Z,4.30
2023-01-19T04:21:32.895Z,4.20
2023-01-19T04:22:36.732Z,5.70
2023-01-19T04:23:39.373Z,4.30
2023-01-19T04:24:45.298Z,4.30
2023-01-19T04:25:48.156Z,4.30
2023-01-19T04:26:57.387Z,4.30
2023-01-19T04:28:00.143Z,4.30
2023-01-19T04:29:03.689Z,4.40
2023-01-19T04:30:07.675Z,4.40
2023-01-19T04:31:11.492Z,4.40
2023-01-19T04:32:15.245Z,5.30
2023-01-19T04:33:18.646Z,4.40
2023-01-19T04:34:20.987Z,4.40
2023-01-19T04:35:24.622Z,4.50
2023-01-19T04:36:28.251Z,4.40
2023-01-19T04:37:30.941Z,4.40
2023-01-19T04:38:34.414Z,4.20
2023-01-19T04:39:37.036Z,4.50
2023-01-19T04:40:43.140Z,4.50
2023-01-19T04:41:46.624Z,4.50
2023-01-19T04:42:54.560Z,4.50
2023-01-19T04:43:58.250Z,4.50
2023-01-19T04:45:00.663Z,4.50
2023-01-19T04:46:04.599Z,4.50
2023-01-19T04:47:07.316Z,4.60
2023-01-19T04:48:11.245Z,4.60
2023-01-19T04:49:14.039Z,4.60
2023-01-19T04:50:18.261Z,4.60
2023-01-19T04:51:20.581Z,4.60
2023-01-19T04:52:23.907Z,4.70
2023-01-19T04:53:27.035Z,4.70
2023-01-19T04:54:30.786Z,3.30
2023-01-19T04:55:33.553Z,4.70
2023-01-19T04:56:40.900Z,4.60
2023-01-19T04:57:46.109Z,4.50
2023-01-19T04:58:51.260Z,4.60
2023-01-19T04:59:56.444Z,4.40
2023-01-19T05:01:00.578Z,5.30
2023-01-19T05:02:03.342Z,4.30
2023-01-19T05:03:07.394Z,4.20
2023-01-19T05:04:10.383Z,4.20
2023-01-19T05:05:14.468Z,3.10
2023-01-19T05:06:19.596Z,4.10
2023-01-19T05:07:23.308Z,4.10
2023-01-19T05:08:25.868Z,4.10
2023-01-19T05:09:29.608Z,3.20
2023-01-19T05:10:33.307Z,4.00
2023-01-19T05:11:36.135Z,4.00
2023-01-19T05:12:41.140Z,4.00
2023-01-19T05:13:43.885Z,4.00
2023-01-19T05:14:51.334Z,4.00
2023-01-19T05:15:56.057Z,4.00
2023-01-19T05:17:00.370Z,4.10
2023-01-19T05:18:03.107Z,4.00
2023-01-19T05:19:06.583Z,4.00
2023-01-19T05:20:12.915Z,4.00
2023-01-19T05:21:17.913Z,4.00
2023-01-19T05:22:20.490Z,4.00
2023-01-19T05:23:24.030Z,3.90
2023-01-19T05:24:26.420Z,3.40
2023-01-19T05:25:30.382Z,3.90
2023-01-19T05:26:32.793Z,3.90
2023-01-19T05:27:36.564Z,3.90
2023-01-19T05:28:39.525Z,4.00
2023-01-19T05:29:43.064Z,4.00
2023-01-19T05:30:49.434Z,4.00
2023-01-19T05:31:56.395Z,4.20
2023-01-19T05:33:01.819Z,4.10
2023-01-19T05:34:06.328Z,4.10
2023-01-19T05:35:10.953Z,4.10
2023-01-19T05:36:13.766Z,4.10
2023-01-19T05:37:17.362Z,4.10
2023-01-19T05:38:34.383Z,4.10
2023-01-19T05:39:38.835Z,4.00
2023-01-19T05:40:41.169Z,4.00
2023-01-19T05:41:45.666Z,4.00
2023-01-19T05:42:49.676Z,4.00
2023-01-19T05:43:54.936Z,4.00
2023-01-19T05:44:59.597Z,3.90
2023-01-19T05:46:04.094Z,3.90
2023-01-19T05:47:07.907Z,4.00
2023-01-19T05:48:10.852Z,4.00
2023-01-19T05:49:14.661Z,4.00
2023-01-19T05:50:17.241Z,4.00
2023-01-19T05:51:21.024Z,4.10
2023-01-19T05:52:25.053Z,4.10
2023-01-19T05:53:29.582Z,3.40
2023-01-19T05:54:32.322Z,5.40
2023-01-19T05:55:36.013Z,4.10
2023-01-19T05:56:39.446Z,4.10
2023-01-19T05:57:43.166Z,4.10
2023-01-19T05:58:47.770Z,4.10
2023-01-19T05:59:51.163Z,4.10
2023-01-19T06:00:53.884Z,4.10
2023-01-19T06:02:00.050Z,4.10
2023-01-19T06:03:03.783Z,4.10
2023-01-19T06:04:07.971Z,4.10
2023-01-19T06:05:10.705Z,4.10
2023-01-19T06:06:15.418Z,5.00
2023-01-19T06:07:17.923Z,4.00
2023-01-19T06:08:21.541Z,4.00
2023-01-19T06:09:23.961Z,4.00
2023-01-19T06:10:27.418Z,3.90
2023-01-19T06:11:29.863Z,4.00
2023-01-19T06:12:33.620Z,3.90
2023-01-19T06:13:41.354Z,4.00
2023-01-19T06:14:45.871Z,3.90
2023-01-19T06:15:48.652Z,3.80
2023-01-19T06:16:56.419Z,3.90
2023-01-19T06:18:03.598Z,3.90
2023-01-19T06:19:08.116Z,3.90
2023-01-19T06:20:14.287Z,4.70
2023-01-19T06:21:19.360Z,3.90
2023-01-19T06:22:23.327Z,3.90
2023-01-19T06:23:31.777Z,3.90
2023-01-19T06:24:38.323Z,3.90
2023-01-19T06:25:40.846Z,3.90
2023-01-19T06:26:44.413Z,4.00
2023-01-19T06:27:47.434Z,4.00
2023-01-19T06:28:53.509Z,5.30
2023-01-19T06:29:56.197Z,4.00
2023-01-19T06:30:59.868Z,4.00
2023-01-19T06:32:03.555Z,5.40
2023-01-19T06:33:07.815Z,4.00
2023-01-19T06:34:12.743Z,4.10
2023-01-19T06:35:15.913Z,4.20
2023-01-19T06:36:19.746Z,4.10
2023-01-19T06:37:22.069Z,4.00
2023-01-19T06:38:25.886Z,4.00
2023-01-19T06:39:28.764Z,4.10
2023-01-19T06:40:32.639Z,4.10
2023-01-19T06:41:36.160Z,4.10
2023-01-19T06:42:40.140Z,4.00
2023-01-19T06:43:43.557Z,3.90
2023-01-19T06:44:47.602Z,4.00
2023-01-19T06:45:51.391Z,4.00
2023-01-19T06:47:15.463Z,3.90
2023-01-19T06:48:20.646Z,3.90
2023-01-19T06:49:24.274Z,3.90
2023-01-19T06:50:27.215Z,3.30
2023-01-19T06:51:31.007Z,4.00
2023-01-19T06:52:33.759Z,4.00
2023-01-19T06:53:39.790Z,5.00
2023-01-19T06:54:43.440Z,4.00
2023-01-19T06:55:52.443Z,4.00
2023-01-19T06:56:55.616Z,3.70
2023-01-19T06:58:02.073Z,4.50
2023-01-19T06:59:05.837Z,3.90
2023-01-19T07:00:09.524Z,3.90
2023-01-19T07:01:13.380Z,3.90
2023-01-19T07:02:27.864Z,3.90
2023-01-19T07:03:34.392Z,3.80
2023-01-19T07:04:38.860Z,3.80
2023-01-19T07:05:41.340Z,3.90
2023-01-19T07:06:44.936Z,3.90
2023-01-19T07:07:52.400Z,3.90
2023-01-19T07:08:56.437Z,3.90
2023-01-19T07:10:01.248Z,3.90
2023-01-19T07:11:26.219Z,4.00
2023-01-19T07:12:32.117Z,3.90
2023-01-19T07:13:36.708Z,4.00
2023-01-19T07:14:42.360Z,4.00
2023-01-19T07:15:47.799Z,4.00
2023-01-19T07:16:50.288Z,4.10
2023-01-19T07:17:53.951Z,4.00
2023-01-19T07:18:58.121Z,4.00
2023-01-19T07:20:03.693Z,5.40
2023-01-19T07:21:08.031Z,4.20
2023-01-19T07:22:10.390Z,4.20
2023-01-19T07:23:13.940Z,4.20
2023-01-19T07:24:19.898Z,4.20
2023-01-19T07:25:23.592Z,4.30
2023-01-19T07:26:28.037Z,4.30
2023-01-19T07:27:30.429Z,4.30
2023-01-19T07:28:34.248Z,4.30
2023-01-19T07:29:37.407Z,4.20
2023-01-19T07:30:41.580Z,4.20
2023-01-19T07:31:44.502Z,4.20
2023-01-19T07:32:47.959Z,4.10
2023-01-19T07:33:51.519Z,4.20
2023-01-19T07:34:58.195Z,4.20
2023-01-19T07:36:01.820Z,4.10
2023-01-19T07:37:05.430Z,4.00
2023-01-19T07:38:11.111Z,3.90
2023-01-19T07:39:14.769Z,3.90
2023-01-19T07:40:18.776Z,3.90
2023-01-19T07:41:21.309Z,4.70
2023-01-19T07:42:25.040Z,3.90
2023-01-19T07:43:27.547Z,3.90
2023-01-19T07:44:31.264Z,3.90
2023-01-19T07:45:35.377Z,2.70
2023-01-19T07:46:38.979Z,4.10
2023-01-19T07:47:44.686Z,4.10
2023-01-19T07:48:51.419Z,3.50
2023-01-19T07:49:55.742Z,4.00
2023-01-19T07:51:02.038Z,4.20
2023-01-19T07:52:04.761Z,3.90
2023-01-19T07:53:10.151Z,3.90
2023-01-19T07:54:13.052Z,3.90
2023-01-19T07:55:16.762Z,4.00
2023-01-19T07:56:22.229Z,4.00
2023-01-19T07:57:24.967Z,4.10
2023-01-19T07:58:28.880Z,4.70
2023-01-19T07:59:32.384Z,4.10
2023-01-19T08:00:37.351Z,5.00
2023-01-19T08:01:40.235Z,4.10
2023-01-19T08:02:44.079Z,4.10
2023-01-19T08:03:49.954Z,4.10
2023-01-19T08:04:57.391Z,4.10
2023-01-19T08:06:00.611Z,4.10
2023-01-19T08:07:04.881Z,4.00
2023-01-19T08:08:07.805Z,4.90
2023-01-19T08:09:12.184Z,2.90
2023-01-19T08:10:16.118Z,4.10
2023-01-19T08:11:19.631Z,4.10
2023-01-19T08:12:22.438Z,4.10
2023-01-19T08:13:26.307Z,4.10
2023-01-19T08:14:30.693Z,4.10
2023-01-19T08:15:34.034Z,4.10
2023-01-19T08:16:36.767Z,3.20
2023-01-19T08:17:42.989Z,4.20
2023-01-19T08:18:47.010Z,4.20
2023-01-19T08:19:53.297Z,4.10
2023-01-19T08:21:00.257Z,4.10
2023-01-19T08:22:02.882Z,4.20
2023-01-19T08:23:06.406Z,4.20
2023-01-19T08:24:21.560Z,4.20
2023-01-19T08:25:24.549Z,4.20
2023-01-19T08:26:33.089Z,4.20
2023-01-19T08:27:39.154Z,4.20
2023-01-19T08:28:41.735Z,4.30
2023-01-19T08:29:45.773Z,4.30
2023-01-19T08:30:54.299Z,4.20
2023-01-19T08:32:00.290Z,4.20
2023-01-19T08:33:08.163Z,4.30
2023-01-19T08:34:12.449Z,4.30
2023-01-19T08:35:18.771Z,4.20
2023-01-19T08:36:24.997Z,4.30
2023-01-19T08:37:28.628Z,4.30
2023-01-19T08:38:31.658Z,4.40
2023-01-19T08:39:37.660Z,4.80
2023-01-19T08:40:42.090Z,4.40
2023-01-19T08:41:45.711Z,4.30
2023-01-19T08:42:52.029Z,4.30
2023-01-19T08:43:55.541Z,4.30
2023-01-19T08:44:58.703Z,4.30
2023-01-19T08:46:03.812Z,4.30
2023-01-19T08:47:09.692Z,4.30
2023-01-19T08:48:16.337Z,4.30
2023-01-19T08:49:19.812Z,4.40
2023-01-19T08:50:22.971Z,4.40
2023-01-19T08:51:28.855Z,4.40
2023-01-19T08:52:32.747Z,4.40
2023-01-19T08:53:36.399Z,4.40
2023-01-19T08:54:41.725Z,4.40
2023-01-19T08:55:45.424Z,4.40
2023-01-19T08:56:49.029Z,4.50
2023-01-19T08:57:52.853Z,4.40
2023-01-19T08:59:08.591Z,4.40
2023-01-19T09:00:14.395Z,4.40
2023-01-19T09:01:17.233Z,4.50
2023-01-19T09:02:21.094Z,4.50
2023-01-19T09:03:24.762Z,4.40
2023-01-19T09:04:31.015Z,4.40
2023-01-19T09:05:39.334Z,4.50
2023-01-19T09:06:46.682Z,3.60
2023-01-19T09:07:49.464Z,4.50
2023-01-19T09:08:53.003Z,4.40
2023-01-19T09:09:56.642Z,4.40
2023-01-19T09:10:59.579Z,4.50
2023-01-19T09:12:03.748Z,4.50
2023-01-19T09:13:08.689Z,4.50
2023-01-19T09:14:12.680Z,4.40
2023-01-19T09:15:15.365Z,4.40
2023-01-19T09:16:18.829Z,4.40
2023-01-19T09:17:21.595Z,4.40
2023-01-19T09:18:25.505Z,4.40
2023-01-19T09:19:28.366Z,4.40
2023-01-19T09:20:33.901Z,4.30
2023-01-19T09:21:38.824Z,4.30
2023-01-19T09:22:43.330Z,4.30
2023-01-19T09:23:46.852Z,4.30
2023-01-19T09:24:49.677Z,4.30
2023-01-19T09:25:59.721Z,4.30
2023-01-19T09:27:06.276Z,4.30
2023-01-19T09:28:11.079Z,4.30
2023-01-19T09:29:14.832Z,4.40
2023-01-19T09:30:19.204Z,4.40
2023-01-19T09:31:22.815Z,4.40
2023-01-19T09:32:27.592Z,4.40
2023-01-19T09:33:31.777Z,5.60
2023-01-19T09:34:35.486Z,4.50
2023-01-19T09:35:41.514Z,4.40
2023-01-19T09:36:44.842Z,4.40
2023-01-19T09:37:49.511Z,4.40
2023-01-19T09:38:52.997Z,4.50
2023-01-19T09:39:56.685Z,4.50
2023-01-19T09:41:04.559Z,4.80
2023-01-19T09:42:20.867Z,4.50
2023-01-19T09:43:36.857Z,4.90
2023-01-19T09:44:46.980Z,4.40
2023-01-19T09:45:57.371Z,4.40
2023-01-19T09:47:16.213Z,4.30
2023-01-19T09:48:33.096Z,4.30
2023-01-19T09:49:42.715Z,4.30
2023-01-19T09:50:47.536Z,4.30
2023-01-19T09:51:53.057Z,4.30
2023-01-19T09:53:07.467Z,4.30
2023-01-19T09:54:16.859Z,4.40
2023-01-19T09:55:25.650Z,4.30
2023-01-19T09:56:31.641Z,4.30
2023-01-19T09:57:36.735Z,4.30
2023-01-19T09:58:40.738Z,3.50
2023-01-19T09:59:47.857Z,4.30
2023-01-19T10:01:04.274Z,4.30
2023-01-19T10:02:25.993Z,4.30
2023-01-19T10:03:31.153Z,4.30
2023-01-19T10:04:41.106Z,4.20
2023-01-19T10:05:51.832Z,4.30
2023-01-19T10:07:08.087Z,4.30
2023-01-19T10:08:22.775Z,4.40
2023-01-19T10:09:36.216Z,4.30
2023-01-19T10:10:44.054Z,4.30
2023-01-19T10:11:55.715Z,4.30
2023-01-19T10:13:26.533Z,4.20
2023-01-19T10:14:39.036Z,4.20
2023-01-19T10:16:05.353Z,4.20
2023-01-19T10:17:24.505Z,4.10
2023-01-19T10:18:35.120Z,4.10
2023-01-19T10:19:47.038Z,4.10
2023-01-19T10:20:53.763Z,4.10
2023-01-19T10:22:00.817Z,4.10
2023-01-19T10:23:18.646Z,4.10
2023-01-19T10:24:30.057Z,4.20
2023-01-19T10:25:35.332Z,4.10
2023-01-19T10:26:45.559Z,4.00
2023-01-19T10:27:51.088Z,4.00
2023-01-19T10:28:59.918Z,4.00
2023-01-19T10:30:04.576Z,3.90
2023-01-19T10:31:10.164Z,3.90
2023-01-19T10:32:17.872Z,3.90
2023-01-19T10:33:22.163Z,3.90
2023-01-19T10:34:25.775Z,4.00
2023-01-19T10:35:34.792Z,4.00
2023-01-19T10:36:41.697Z,4.10
2023-01-19T10:37:45.339Z,4.20
2023-01-19T10:38:52.245Z,4.20
2023-01-19T10:40:00.717Z,4.20
2023-01-19T10:41:14.720Z,4.30
2023-01-19T10:42:19.557Z,4.30
2023-01-19T10:43:51.906Z,4.20
2023-01-19T10:44:55.739Z,4.20
2023-01-19T10:46:03.291Z,4.10
2023-01-19T10:47:16.964Z,4.10
2023-01-19T10:48:23.613Z,4.00
2023-01-19T10:49:29.490Z,4.00
2023-01-19T10:50:37.540Z,4.00
2023-01-19T10:51:49.775Z,3.90
2023-01-19T10:52:56.216Z,3.90
2023-01-19T10:54:06.119Z,3.90
2023-01-19T10:55:28.193Z,3.90
2023-01-19T10:56:36.362Z,3.90
2023-01-19T10:57:46.167Z,4.00
2023-01-19T10:58:49.030Z,3.90
2023-01-19T10:59:53.816Z,4.00
2023-01-19T11:01:13.621Z,3.90
2023-01-19T11:02:22.927Z,4.00
2023-01-19T11:03:29.382Z,4.00
2023-01-19T11:04:33.339Z,4.00
2023-01-19T11:05:38.678Z,4.00
2023-01-19T11:06:42.597Z,5.10
2023-01-19T11:07:46.570Z,4.90
2023-01-19T11:08:51.919Z,3.90
2023-01-19T11:10:22.182Z,4.00
2023-01-19T11:11:25.575Z,4.00
2023-01-19T11:12:30.356Z,4.10
2023-01-19T11:13:34.149Z,5.30
2023-01-19T11:14:38.804Z,4.20
2023-01-19T11:15:45.931Z,4.20
2023-01-19T11:16:53.568Z,4.20
2023-01-19T11:17:57.895Z,4.20
2023-01-19T11:19:02.393Z,4.20
2023-01-19T11:20:06.944Z,4.30
2023-01-19T11:21:15.786Z,4.20
2023-01-19T11:22:23.301Z,4.30
2023-01-19T11:23:30.523Z,4.30
2023-01-19T11:24:38.214Z,4.40
2023-01-19T11:25:51.464Z,4.30
2023-01-19T11:27:03.069Z,5.00
2023-01-19T11:28:07.135Z,4.50
2023-01-19T11:29:18.959Z,4.50
2023-01-19T11:30:26.927Z,5.10
2023-01-19T11:31:41.499Z,6.30
2023-01-19T11:32:45.515Z,5.90
2023-01-19T11:33:55.954Z,5.10
2023-01-19T11:35:04.057Z,5.00
2023-01-19T11:36:16.169Z,5.00
2023-01-19T11:37:36.477Z,5.00
2023-01-19T11:38:49.338Z,5.00
2023-01-19T11:39:56.448Z,5.00
2023-01-19T11:41:06.951Z,5.00
2023-01-19T11:42:14.747Z,5.00
2023-01-19T11:43:22.881Z,5.10
2023-01-19T11:44:31.738Z,5.00
2023-01-19T11:45:37.301Z,5.00
2023-01-19T11:46:49.940Z,5.00
2023-01-19T11:47:53.705Z,5.00
2023-01-19T11:49:02.344Z,5.00
2023-01-19T11:50:12.805Z,5.00
2023-01-19T11:51:23.270Z,4.30
2023-01-19T11:52:33.430Z,6.40
2023-01-19T11:53:38.256Z,5.00
2023-01-19T11:54:53.441Z,4.90
2023-01-19T11:56:03.939Z,5.00
2023-01-19T11:57:15.358Z,5.90
2023-01-19T11:58:20.374Z,4.90
2023-01-19T11:59:25.286Z,4.90
2023-01-19T12:00:36.157Z,4.90
2023-01-19T12:01:48.894Z,4.90
2023-01-19T12:02:59.322Z,4.90
2023-01-19T12:04:08.004Z,5.00
2023-01-19T12:05:16.183Z,5.00
2023-01-19T12:06:27.410Z,4.90
2023-01-19T12:07:36.237Z,5.00
2023-01-19T12:08:48.006Z,4.90
2023-01-19T12:09:58.938Z,5.00
2023-01-19T12:11:06.869Z,5.00
2023-01-19T12:12:21.966Z,5.00
2023-01-19T12:13:28.723Z,5.00
2023-01-19T12:14:45.039Z,4.20
2023-01-19T12:15:53.166Z,5.00
2023-01-19T12:17:01.570Z,5.00
2023-01-19T12:18:10.696Z,5.00
2023-01-19T12:19:20.742Z,5.00
2023-01-19T12:20:30.484Z,5.10
2023-01-19T12:21:34.343Z,5.10
2023-01-19T12:22:45.151Z,5.10
2023-01-19T12:24:01.587Z,6.90
2023-01-19T12:25:18.103Z,5.10
2023-01-19T12:26:32.319Z,5.10
2023-01-19T12:27:43.171Z,5.10
2023-01-19T12:28:49.792Z,5.10
2023-01-19T12:29:58.790Z,5.10
2023-01-19T12:31:08.378Z,5.10
2023-01-19T12:32:20.698Z,5.10
2023-01-19T12:33:38.751Z,5.10
2023-01-19T12:34:42.837Z,5.20
2023-01-19T12:35:58.166Z,4.80
2023-01-19T12:37:04.849Z,5.00
2023-01-19T12:38:41.972Z,5.00
2023-01-19T12:39:50.436Z,5.00
2023-01-19T12:41:19.131Z,5.00
2023-01-19T12:42:25.333Z,5.00
2023-01-19T12:43:28.001Z,5.00
2023-01-19T12:44:35.303Z,5.00
2023-01-19T12:45:39.939Z,5.00
2023-01-19T12:46:47.210Z,5.00
2023-01-19T12:47:55.015Z,6.70
2023-01-19T12:49:11.111Z,5.00
2023-01-19T12:50:21.286Z,5.00
2023-01-19T12:51:25.953Z,4.90
2023-01-19T12:52:35.818Z,6.00
2023-01-19T12:53:39.406Z,4.90
2023-01-19T12:54:50.953Z,4.80
2023-01-19T12:56:06.531Z,4.90
2023-01-19T12:57:19.457Z,4.80
2023-01-19T12:58:26.678Z,4.80
2023-01-19T12:59:31.360Z,4.50
2023-01-19T13:00:41.187Z,4.80
2023-01-19T13:01:44.205Z,4.70
2023-01-19T13:02:49.377Z,4.80
2023-01-19T13:04:09.310Z,4.70
2023-01-19T13:05:19.043Z,4.80
2023-01-19T13:07:05.925Z,4.70
2023-01-19T13:08:24.803Z,4.70
2023-01-19T13:09:34.453Z,4.80
2023-01-19T13:11:15.672Z,4.70
2023-01-19T13:12:27.668Z,4.70
2023-01-19T13:13:33.352Z,4.70
2023-01-19T13:14:39.151Z,4.70
2023-01-19T13:15:42.750Z,4.70
2023-01-19T13:17:19.679Z,4.70
2023-01-19T13:18:26.747Z,4.70
2023-01-19T13:19:50.500Z,4.70
2023-01-19T13:20:59.870Z,4.80
2023-01-19T13:22:52.000Z,4.80
2023-01-19T13:24:00.471Z,4.80
2023-01-19T13:25:10.976Z,4.90
2023-01-19T13:26:18.494Z,4.90
2023-01-19T13:27:21.491Z,5.00
2023-01-19T13:28:36.637Z,5.70
2023-01-19T13:29:43.923Z,4.50
2023-01-19T13:30:59.632Z,5.00
2023-01-19T13:32:07.787Z,5.10
2023-01-19T13:33:24.649Z,5.10
2023-01-19T13:34:30.433Z,5.10
2023-01-19T13:35:34.578Z,5.10
2023-01-19T13:36:41.125Z,5.10
2023-01-19T13:37:46.373Z,5.00
2023-01-19T13:38:53.508Z,5.00
2023-01-19T13:39:56.823Z,5.60
2023-01-19T13:41:04.478Z,4.90
2023-01-19T13:42:18.459Z,4.80
2023-01-19T13:43:29.391Z,4.90
2023-01-19T13:44:41.603Z,4.90
2023-01-19T13:45:53.360Z,4.90
2023-01-19T13:47:05.234Z,5.00
2023-01-19T13:48:19.687Z,5.00
2023-01-19T13:49:30.624Z,5.00
2023-01-19T13:50:39.973Z,5.00
2023-01-19T13:51:43.825Z,5.00
2023-01-19T13:52:49.025Z,5.00
2023-01-19T13:53:56.116Z,5.00
2023-01-19T13:55:03.280Z,5.10
2023-01-19T13:56:08.070Z,5.10
2023-01-19T13:57:23.773Z,5.10
2023-01-19T13:58:28.674Z,5.10
2023-01-19T13:59:32.631Z,5.10
2023-01-19T14:00:38.560Z,5.10
2023-01-19T14:01:44.247Z,5.00
2023-01-19T14:02:57.274Z,5.00
2023-01-19T14:04:04.168Z,4.90
2023-01-19T14:05:21.511Z,4.90
2023-01-19T14:06:36.207Z,4.90
2023-01-19T14:07:39.498Z,4.90
2023-01-19T14:08:43.301Z,4.90
2023-01-19T14:09:45.945Z,4.80
2023-01-19T14:11:03.018Z,4.80
2023-01-19T14:12:14.405Z,5.70
2023-01-19T14:13:21.172Z,5.00
2023-01-19T14:14:27.395Z,4.70
2023-01-19T14:15:33.165Z,4.70
2023-01-19T14:16:38.325Z,4.80
2023-01-19T14:17:42.979Z,4.80
2023-01-19T14:18:46.693Z,5.20
2023-01-19T14:19:49.971Z,5.20
2023-01-19T14:20:57.164Z,5.30
2023-01-19T14:22:03.377Z,5.30
2023-01-19T14:23:28.897Z,5.20
2023-01-19T14:24:35.176Z,5.20
2023-01-19T14:25:39.712Z,5.00
2023-01-19T14:26:46.852Z,5.10
2023-01-19T14:27:51.159Z,5.80
2023-01-19T14:28:55.091Z,5.10
2023-01-19T14:30:21.759Z,5.10
2023-01-19T14:31:28.050Z,5.10
2023-01-19T14:32:31.670Z,5.10
2023-01-19T14:33:41.489Z,5.10
2023-01-19T14:34:48.965Z,5.10
2023-01-19T14:35:51.845Z,5.10
2023-01-19T14:36:55.791Z,6.20
2023-01-19T14:37:59.701Z,5.00
2023-01-19T14:39:04.929Z,5.00
2023-01-19T14:40:24.523Z,4.90
2023-01-19T14:41:37.565Z,6.20
2023-01-19T14:42:51.854Z,4.90
2023-01-19T14:43:56.370Z,4.80
2023-01-19T14:45:04.119Z,4.80
2023-01-19T14:46:06.688Z,4.80
2023-01-19T14:47:27.421Z,4.80
2023-01-19T14:48:31.769Z,4.80
2023-01-19T14:49:39.797Z,4.80
2023-01-19T14:50:57.662Z,4.90
2023-01-19T14:52:23.411Z,4.90
2023-01-19T14:53:28.596Z,4.90
2023-01-19T14:54:41.309Z,4.50
2023-01-19T14:55:50.619Z,4.10
2023-01-19T14:56:55.841Z,4.90